sensor_id;sensor_type;location;lat;lon;timestamp;temperature;humidity
46608;DHT22;32330;51.936;7.184;2023-08-31T03:50:03;11.80;99.90
46608;DHT22;32330;51.936;7.184;2023-08-31T03:52:30;11.80;99.90
46608;DHT22;32330;51.936;7.184;2023-08-31T03:54:58;11.80;99.90
46608;DHT22;32330;51.936;7.184;2023-08-31T03:57:24;11.80;99.90
46608;DHT22;32330;51.936;7.184;2023-08-31T03:59:56;11.70;99.90
46608;DHT22;32330;51.936;7.184;2023-08-31T04:02:23;11.80;99.90
46608;DHT22;32330;51.936;7.184;2023-08-31T04:04:50;11.80;99.90
46608;DHT22;32330;51.936;7.184;2023-08-31T04:07:18;11.80;99.90
46608;DHT22;32330;51.936;7.184;2023-08-31T04:09:45;11.80;99.90
46608;DHT22;32330;51.936;7.184;2023-08-31T04:12:12;11.90;99.90
46608;DHT22;32330;51.936;7.184;2023-08-31T04:14:39;11.90;99.90
46608;DHT22;32330;51.936;7.184;2023-08-31T04:17:06;11.90;99.90
46608;DHT22;32330;51.936;7.184;2023-08-31T04:19:35;11.90;99.90
46608;DHT22;32330;51.936;7.184;2023-08-31T04:22:03;11.90;99.90
46608;DHT22;32330;51.936;7.184;2023-08-31T04:24:32;11.90;99.90
46608;DHT22;32330;51.936;7.184;2023-08-31T04:26:59;11.90;99.90
46608;DHT22;32330;51.936;7.184;2023-08-31T04:29:26;11.90;99.90
46608;DHT22;32330;51.936;7.184;2023-08-31T04:31:53;11.90;99.90
46608;DHT22;32330;51.936;7.184;2023-08-31T04:34:20;11.90;99.90
46608;DHT22;32330;51.936;7.184;2023-08-31T04:36:47;11.90;99.90
46608;DHT22;32330;51.936;7.184;2023-08-31T04:39:14;11.90;99.90
46608;DHT22;32330;51.936;7.184;2023-08-31T04:41:43;11.90;99.90
46608;DHT22;32330;51.936;7.184;2023-08-31T04:44:10;11.90;99.90
46608;DHT22;32330;51.936;7.184;2023-08-31T04:46:38;11.90;99.90
46608;DHT22;32330;51.936;7.184;2023-08-31T04:49:05;11.90;99.90
46608;DHT22;32330;51.936;7.184;2023-08-31T04:51:33;11.90;99.90
46608;DHT22;32330;51.936;7.184;2023-08-31T04:54:00;11.90;99.90
46608;DHT22;32330;51.936;7.184;2023-08-31T04:56:30;11.90;99.90
46608;DHT22;32330;51.936;7.184;2023-08-31T04:58:59;11.90;99.90
46608;DHT22;32330;51.936;7.184;2023-08-31T05:01:26;11.90;99.90
46608;DHT22;32330;51.936;7.184;2023-08-31T05:03:53;11.90;99.90
46608;DHT22;32330;51.936;7.184;2023-08-31T05:06:20;11.90;99.90
46608;DHT22;32330;51.936;7.184;2023-08-31T05:08:47;12.00;99.90
46608;DHT22;32330;51.936;7.184;2023-08-31T05:11:14;12.00;99.90
46608;DHT22;32330;51.936;7.184;2023-08-31T05:13:41;12.00;99.90
46608;DHT22;32330;51.936;7.184;2023-08-31T05:16:10;12.00;99.90
46608;DHT22;32330;51.936;7.184;2023-08-31T05:18:38;12.10;99.90
46608;DHT22;32330;51.936;7.184;2023-08-31T05:21:06;12.10;99.90
46608;DHT22;32330;51.936;7.184;2023-08-31T05:23:34;12.00;99.90
46608;DHT22;32330;51.936;7.184;2023-08-31T05:26:01;12.00;99.90
46608;DHT22;32330;51.936;7.184;2023-08-31T05:28:28;12.10;99.90
46608;DHT22;32330;51.936;7.184;2023-08-31T05:30:56;12.00;99.90
46608;DHT22;32330;51.936;7.184;2023-08-31T05:33:25;12.00;99.90
46608;DHT22;32330;51.936;7.184;2023-08-31T05:35:54;12.10;99.90
46608;DHT22;32330;51.936;7.184;2023-08-31T05:38:21;12.10;99.90
46608;DHT22;32330;51.936;7.184;2023-08-31T05:40:49;12.20;99.90
46608;DHT22;32330;51.936;7.184;2023-08-31T05:43:16;12.10;99.90
46608;DHT22;32330;51.936;7.184;2023-08-31T05:45:43;12.20;99.90
46608;DHT22;32330;51.936;7.184;2023-08-31T05:48:12;12.30;99.90
46608;DHT22;32330;51.936;7.184;2023-08-31T05:50:41;12.30;99.90
46608;DHT22;32330;51.936;7.184;2023-08-31T05:53:09;12.30;99.90
46608;DHT22;32330;51.936;7.184;2023-08-31T05:55:36;12.30;99.90
46608;DHT22;32330;51.936;7.184;2023-08-31T05:58:03;12.40;99.90
46608;DHT22;32330;51.936;7.184;2023-08-31T06:00:30;12.40;99.90
46608;DHT22;32330;51.936;7.184;2023-08-31T06:02:57;12.50;99.90
46608;DHT22;32330;51.936;7.184;2023-08-31T06:05:24;12.50;99.90
46608;DHT22;32330;51.936;7.184;2023-08-31T06:07:52;12.50;99.90
46608;DHT22;32330;51.936;7.184;2023-08-31T06:10:19;12.40;99.90
46608;DHT22;32330;51.936;7.184;2023-08-31T06:12:49;12.40;99.90
46608;DHT22;32330;51.936;7.184;2023-08-31T06:15:16;12.40;99.90
46608;DHT22;32330;51.936;7.184;2023-08-31T06:17:43;12.40;99.90
46608;DHT22;32330;51.936;7.184;2023-08-31T06:20:11;12.40;99.90
46608;DHT22;32330;51.936;7.184;2023-08-31T06:22:38;12.50;99.90
46608;DHT22;32330;51.936;7.184;2023-08-31T06:25:07;12.50;99.90
46608;DHT22;32330;51.936;7.184;2023-08-31T06:27:34;12.50;99.90
46608;DHT22;32330;51.936;7.184;2023-08-31T06:30:01;12.60;99.90
46608;DHT22;32330;51.936;7.184;2023-08-31T06:32:30;12.70;99.90
46608;DHT22;32330;51.936;7.184;2023-08-31T06:34:57;12.70;99.90
46608;DHT22;32330;51.936;7.184;2023-08-31T06:37:24;12.70;99.90
46608;DHT22;32330;51.936;7.184;2023-08-31T06:39:51;12.80;99.90
46608;DHT22;32330;51.936;7.184;2023-08-31T06:42:19;12.90;99.90
46608;DHT22;32330;51.936;7.184;2023-08-31T06:44:46;13.00;99.90
46608;DHT22;32330;51.936;7.184;2023-08-31T06:47:13;13.00;99.90
46608;DHT22;32330;51.936;7.184;2023-08-31T06:49:43;13.10;99.90
46608;DHT22;32330;51.936;7.184;2023-08-31T06:52:10;13.20;99.90
46608;DHT22;32330;51.936;7.184;2023-08-31T06:58:31;13.30;99.90
46608;DHT22;32330;51.936;7.184;2023-08-31T07:00:58;13.30;99.90
46608;DHT22;32330;51.936;7.184;2023-08-31T07:03:25;13.30;99.90
46608;DHT22;32330;51.936;7.184;2023-08-31T07:05:52;13.30;99.90
46608;DHT22;32330;51.936;7.184;2023-08-31T07:08:20;13.30;99.90
46608;DHT22;32330;51.936;7.184;2023-08-31T07:10:47;13.40;99.90
46608;DHT22;32330;51.936;7.184;2023-08-31T07:13:14;13.50;99.90
46608;DHT22;32330;51.936;7.184;2023-08-31T07:15:42;13.50;99.90
46608;DHT22;32330;51.936;7.184;2023-08-31T07:18:09;13.60;99.90
46608;DHT22;32330;51.936;7.184;2023-08-31T07:20:36;13.60;99.90
46608;DHT22;32330;51.936;7.184;2023-08-31T07:23:04;13.60;99.90
46608;DHT22;32330;51.936;7.184;2023-08-31T07:25:31;13.70;99.90
46608;DHT22;32330;51.936;7.184;2023-08-31T07:27:58;13.70;99.90
46608;DHT22;32330;51.936;7.184;2023-08-31T07:30:25;13.70;99.90
46608;DHT22;32330;51.936;7.184;2023-08-31T07:32:53;13.80;99.90
46608;DHT22;32330;51.936;7.184;2023-08-31T07:35:20;13.80;99.90
46608;DHT22;32330;51.936;7.184;2023-08-31T07:37:47;13.90;99.90
46608;DHT22;32330;51.936;7.184;2023-08-31T07:40:14;13.90;99.90
46608;DHT22;32330;51.936;7.184;2023-08-31T07:42:41;13.80;99.90
46608;DHT22;32330;51.936;7.184;2023-08-31T07:45:09;14.10;99.90
46608;DHT22;32330;51.936;7.184;2023-08-31T07:47:36;14.40;99.90
46608;DHT22;32330;51.936;7.184;2023-08-31T07:50:05;14.70;99.90
46608;DHT22;32330;51.936;7.184;2023-08-31T07:52:32;14.90;99.90
46608;DHT22;32330;51.936;7.184;2023-08-31T07:55:00;15.00;99.90
46608;DHT22;32330;51.936;7.184;2023-08-31T07:57:27;15.20;99.90
46608;DHT22;32330;51.936;7.184;2023-08-31T07:59:54;15.30;99.90
46608;DHT22;32330;51.936;7.184;2023-08-31T08:02:21;15.50;99.90
46608;DHT22;32330;51.936;7.184;2023-08-31T08:04:48;15.60;99.90
46608;DHT22;32330;51.936;7.184;2023-08-31T08:07:16;15.60;99.90
46608;DHT22;32330;51.936;7.184;2023-08-31T08:09:43;15.60;99.90
46608;DHT22;32330;51.936;7.184;2023-08-31T08:12:10;15.60;99.90
46608;DHT22;32330;51.936;7.184;2023-08-31T08:14:37;15.60;99.90
46608;DHT22;32330;51.936;7.184;2023-08-31T08:17:04;15.90;99.90
46608;DHT22;32330;51.936;7.184;2023-08-31T08:19:31;16.20;99.90
46608;DHT22;32330;51.936;7.184;2023-08-31T08:21:58;16.20;99.90
46608;DHT22;32330;51.936;7.184;2023-08-31T08:24:26;16.20;99.90
46608;DHT22;32330;51.936;7.184;2023-08-31T08:26:53;16.10;99.90
46608;DHT22;32330;51.936;7.184;2023-08-31T08:29:20;16.00;99.90
46608;DHT22;32330;51.936;7.184;2023-08-31T08:31:47;16.30;99.90
46608;DHT22;32330;51.936;7.184;2023-08-31T08:34:14;16.60;99.90
46608;DHT22;32330;51.936;7.184;2023-08-31T08:36:41;16.70;99.90
46608;DHT22;32330;51.936;7.184;2023-08-31T08:39:08;16.50;99.90
46608;DHT22;32330;51.936;7.184;2023-08-31T08:41:37;16.40;99.90
46608;DHT22;32330;51.936;7.184;2023-08-31T08:44:06;16.50;99.90
46608;DHT22;32330;51.936;7.184;2023-08-31T08:46:34;16.50;99.90
46608;DHT22;32330;51.936;7.184;2023-08-31T08:49:02;16.50;99.90
46608;DHT22;32330;51.936;7.184;2023-08-31T08:51:31;16.50;99.90
46608;DHT22;32330;51.936;7.184;2023-08-31T08:53:59;16.70;99.90
46608;DHT22;32330;51.936;7.184;2023-08-31T08:56:26;16.90;99.90
46608;DHT22;32330;51.936;7.184;2023-08-31T08:58:54;17.10;99.90
46608;DHT22;32330;51.936;7.184;2023-08-31T09:01:22;17.30;99.90
46608;DHT22;32330;51.936;7.184;2023-08-31T09:03:50;17.40;99.90
46608;DHT22;32330;51.936;7.184;2023-08-31T09:06:18;17.50;99.90
46608;DHT22;32330;51.936;7.184;2023-08-31T09:08:53;17.60;99.90
46608;DHT22;32330;51.936;7.184;2023-08-31T09:11:21;17.60;99.90
46608;DHT22;32330;51.936;7.184;2023-08-31T09:13:49;17.60;99.90
46608;DHT22;32330;51.936;7.184;2023-08-31T09:16:25;17.70;99.90
46608;DHT22;32330;51.936;7.184;2023-08-31T09:18:54;17.90;99.90
46608;DHT22;32330;51.936;7.184;2023-08-31T09:21:21;17.90;99.90
46608;DHT22;32330;51.936;7.184;2023-08-31T09:23:56;18.20;99.90
46608;DHT22;32330;51.936;7.184;2023-08-31T09:26:24;18.30;99.90
46608;DHT22;32330;51.936;7.184;2023-08-31T09:28:51;18.40;99.90
46608;DHT22;32330;51.936;7.184;2023-08-31T09:31:18;18.10;99.90
46608;DHT22;32330;51.936;7.184;2023-08-31T09:33:51;17.80;99.90
46608;DHT22;32330;51.936;7.184;2023-08-31T09:36:20;17.80;99.90
46608;DHT22;32330;51.936;7.184;2023-08-31T09:38:47;18.00;99.90
46608;DHT22;32330;51.936;7.184;2023-08-31T09:41:14;18.10;99.90
46608;DHT22;32330;51.936;7.184;2023-08-31T09:43:42;18.30;99.90
46608;DHT22;32330;51.936;7.184;2023-08-31T09:46:10;18.20;99.90
46608;DHT22;32330;51.936;7.184;2023-08-31T09:48:38;18.10;99.90
46608;DHT22;32330;51.936;7.184;2023-08-31T09:51:09;18.10;99.90
46608;DHT22;32330;51.936;7.184;2023-08-31T09:53:37;18.10;99.90
46608;DHT22;32330;51.936;7.184;2023-08-31T09:56:05;18.20;99.90
46608;DHT22;32330;51.936;7.184;2023-08-31T09:58:33;18.40;99.90
46608;DHT22;32330;51.936;7.184;2023-08-31T10:01:00;18.60;99.90
46608;DHT22;32330;51.936;7.184;2023-08-31T10:03:28;18.80;99.90
46608;DHT22;32330;51.936;7.184;2023-08-31T10:05:55;18.80;99.90
46608;DHT22;32330;51.936;7.184;2023-08-31T10:08:25;18.80;99.90
46608;DHT22;32330;51.936;7.184;2023-08-31T10:10:59;19.00;99.90
46608;DHT22;32330;51.936;7.184;2023-08-31T10:13:28;19.10;99.90
46608;DHT22;32330;51.936;7.184;2023-08-31T10:15:58;19.10;99.90
46608;DHT22;32330;51.936;7.184;2023-08-31T10:18:25;19.30;99.90
46608;DHT22;32330;51.936;7.184;2023-08-31T10:20:54;19.30;99.90
46608;DHT22;32330;51.936;7.184;2023-08-31T10:23:20;19.50;99.90
46608;DHT22;32330;51.936;7.184;2023-08-31T10:26:02;19.60;99.90
46608;DHT22;32330;51.936;7.184;2023-08-31T10:28:39;19.70;99.90
46608;DHT22;32330;51.936;7.184;2023-08-31T10:31:07;19.50;99.90
46608;DHT22;32330;51.936;7.184;2023-08-31T10:33:39;19.30;99.90
46608;DHT22;32330;51.936;7.184;2023-08-31T10:36:10;19.40;99.90
46608;DHT22;32330;51.936;7.184;2023-08-31T10:38:37;19.60;99.90
46608;DHT22;32330;51.936;7.184;2023-08-31T10:41:21;19.60;99.90
46608;DHT22;32330;51.936;7.184;2023-08-31T10:43:51;19.50;99.90
46608;DHT22;32330;51.936;7.184;2023-08-31T10:46:24;19.40;99.90
46608;DHT22;32330;51.936;7.184;2023-08-31T10:48:53;19.20;99.90
46608;DHT22;32330;51.936;7.184;2023-08-31T10:51:29;19.10;99.90
46608;DHT22;32330;51.936;7.184;2023-08-31T10:54:07;19.10;99.90
46608;DHT22;32330;51.936;7.184;2023-08-31T10:57:01;19.50;99.90
46608;DHT22;32330;51.936;7.184;2023-08-31T10:59:51;19.70;99.90
46608;DHT22;32330;51.936;7.184;2023-08-31T11:02:29;19.70;99.90
46608;DHT22;32330;51.936;7.184;2023-08-31T11:05:01;19.40;99.90
46608;DHT22;32330;51.936;7.184;2023-08-31T11:07:29;19.00;99.90
46608;DHT22;32330;51.936;7.184;2023-08-31T11:10:11;18.90;99.90
46608;DHT22;32330;51.936;7.184;2023-08-31T11:12:40;19.00;99.90
46608;DHT22;32330;51.936;7.184;2023-08-31T11:15:08;19.20;99.90
46608;DHT22;32330;51.936;7.184;2023-08-31T11:17:36;19.60;99.90
46608;DHT22;32330;51.936;7.184;2023-08-31T11:20:06;19.70;99.90
46608;DHT22;32330;51.936;7.184;2023-08-31T11:22:38;19.90;99.90
46608;DHT22;32330;51.936;7.184;2023-08-31T11:25:06;19.90;99.90
46608;DHT22;32330;51.936;7.184;2023-08-31T11:27:33;19.90;99.90
46608;DHT22;32330;51.936;7.184;2023-08-31T11:30:01;20.20;99.90
46608;DHT22;32330;51.936;7.184;2023-08-31T11:32:29;20.40;99.90
46608;DHT22;32330;51.936;7.184;2023-08-31T11:34:56;20.60;99.90
46608;DHT22;32330;51.936;7.184;2023-08-31T11:37:23;20.70;99.90
46608;DHT22;32330;51.936;7.184;2023-08-31T11:39:53;20.90;99.90
46608;DHT22;32330;51.936;7.184;2023-08-31T11:42:21;20.90;99.90
46608;DHT22;32330;51.936;7.184;2023-08-31T11:44:53;21.00;99.90
46608;DHT22;32330;51.936;7.184;2023-08-31T11:47:21;21.00;99.90
46608;DHT22;32330;51.936;7.184;2023-08-31T11:49:49;21.00;99.90
46608;DHT22;32330;51.936;7.184;2023-08-31T11:52:17;21.20;99.90
46608;DHT22;32330;51.936;7.184;2023-08-31T11:54:44;21.30;99.90
46608;DHT22;32330;51.936;7.184;2023-08-31T11:57:11;20.90;99.90
46608;DHT22;32330;51.936;7.184;2023-08-31T11:59:40;20.70;99.90
46608;DHT22;32330;51.936;7.184;2023-08-31T12:02:08;20.50;99.90
46608;DHT22;32330;51.936;7.184;2023-08-31T12:04:43;20.50;99.90
46608;DHT22;32330;51.936;7.184;2023-08-31T12:07:11;20.00;99.90
46608;DHT22;32330;51.936;7.184;2023-08-31T12:09:38;19.80;99.90
46608;DHT22;32330;51.936;7.184;2023-08-31T12:12:05;19.90;99.90
46608;DHT22;32330;51.936;7.184;2023-08-31T12:14:37;20.00;99.90
46608;DHT22;32330;51.936;7.184;2023-08-31T12:17:06;19.80;99.90
46608;DHT22;32330;51.936;7.184;2023-08-31T12:19:36;19.50;99.90
46608;DHT22;32330;51.936;7.184;2023-08-31T12:22:05;19.40;99.90
46608;DHT22;32330;51.936;7.184;2023-08-31T12:24:38;19.40;99.90
46608;DHT22;32330;51.936;7.184;2023-08-31T12:27:06;19.40;99.90
46608;DHT22;32330;51.936;7.184;2023-08-31T12:29:33;19.70;99.90
46608;DHT22;32330;51.936;7.184;2023-08-31T12:32:00;19.90;99.90
46608;DHT22;32330;51.936;7.184;2023-08-31T12:34:28;20.20;99.90
46608;DHT22;32330;51.936;7.184;2023-08-31T12:36:56;20.30;99.90
46608;DHT22;32330;51.936;7.184;2023-08-31T12:39:27;20.40;99.90
46608;DHT22;32330;51.936;7.184;2023-08-31T12:41:54;20.10;99.90
46608;DHT22;32330;51.936;7.184;2023-08-31T12:44:22;19.70;99.90
46608;DHT22;32330;51.936;7.184;2023-08-31T12:46:51;19.60;99.90
46608;DHT22;32330;51.936;7.184;2023-08-31T12:49:18;19.40;99.90
46608;DHT22;32330;51.936;7.184;2023-08-31T12:51:45;19.50;99.90
46608;DHT22;32330;51.936;7.184;2023-08-31T12:54:12;19.70;99.90
46608;DHT22;32330;51.936;7.184;2023-08-31T12:56:41;19.70;99.90
46608;DHT22;32330;51.936;7.184;2023-08-31T12:59:08;19.70;99.90
46608;DHT22;32330;51.936;7.184;2023-08-31T13:01:35;19.70;99.90
46608;DHT22;32330;51.936;7.184;2023-08-31T13:04:02;19.70;99.90
46608;DHT22;32330;51.936;7.184;2023-08-31T13:06:30;19.60;99.90
46608;DHT22;32330;51.936;7.184;2023-08-31T13:08:57;19.70;99.90
46608;DHT22;32330;51.936;7.184;2023-08-31T13:11:24;19.60;99.90
46608;DHT22;32330;51.936;7.184;2023-08-31T13:13:53;19.90;99.90
46608;DHT22;32330;51.936;7.184;2023-08-31T13:16:21;20.30;99.90
46608;DHT22;32330;51.936;7.184;2023-08-31T13:18:50;20.50;99.90
46608;DHT22;32330;51.936;7.184;2023-08-31T13:21:17;20.50;99.90
46608;DHT22;32330;51.936;7.184;2023-08-31T13:23:44;20.80;99.90
46608;DHT22;32330;51.936;7.184;2023-08-31T13:26:11;20.80;99.90
46608;DHT22;32330;51.936;7.184;2023-08-31T13:28:38;20.90;99.90
46608;DHT22;32330;51.936;7.184;2023-08-31T13:31:06;20.80;99.90
46608;DHT22;32330;51.936;7.184;2023-08-31T13:33:33;20.80;99.90
46608;DHT22;32330;51.936;7.184;2023-08-31T13:36:00;20.80;99.90
46608;DHT22;32330;51.936;7.184;2023-08-31T13:38:27;21.00;99.90
46608;DHT22;32330;51.936;7.184;2023-08-31T13:40:54;21.10;99.90
46608;DHT22;32330;51.936;7.184;2023-08-31T13:43:22;21.10;99.90
46608;DHT22;32330;51.936;7.184;2023-08-31T13:45:49;21.10;99.80
46608;DHT22;32330;51.936;7.184;2023-08-31T13:48:18;20.90;99.90
46608;DHT22;32330;51.936;7.184;2023-08-31T13:50:46;21.00;99.90
46608;DHT22;32330;51.936;7.184;2023-08-31T13:53:13;20.90;99.90
46608;DHT22;32330;51.936;7.184;2023-08-31T13:55:40;21.30;99.90
46608;DHT22;32330;51.936;7.184;2023-08-31T13:58:08;21.30;99.90
46608;DHT22;32330;51.936;7.184;2023-08-31T14:00:35;21.50;99.90
46608;DHT22;32330;51.936;7.184;2023-08-31T14:03:03;21.60;99.50
46608;DHT22;32330;51.936;7.184;2023-08-31T14:05:32;21.60;99.90
46608;DHT22;32330;51.936;7.184;2023-08-31T14:08:00;21.70;98.80
46608;DHT22;32330;51.936;7.184;2023-08-31T14:10:30;21.60;98.20
46608;DHT22;32330;51.936;7.184;2023-08-31T14:12:58;21.70;98.20
46608;DHT22;32330;51.936;7.184;2023-08-31T14:15:25;21.90;98.20
46608;DHT22;32330;51.936;7.184;2023-08-31T14:17:52;22.00;97.90
46608;DHT22;32330;51.936;7.184;2023-08-31T14:20:20;22.10;97.50
46608;DHT22;32330;51.936;7.184;2023-08-31T14:22:49;22.10;97.60
46608;DHT22;32330;51.936;7.184;2023-08-31T14:25:17;22.10;96.20
46608;DHT22;32330;51.936;7.184;2023-08-31T14:27:43;22.00;96.20
46608;DHT22;32330;51.936;7.184;2023-08-31T14:30:11;21.90;97.10
46608;DHT22;32330;51.936;7.184;2023-08-31T14:32:38;22.00;96.00
46608;DHT22;32330;51.936;7.184;2023-08-31T14:35:06;22.10;97.50
46608;DHT22;32330;51.936;7.184;2023-08-31T14:37:33;22.10;96.20
46608;DHT22;32330;51.936;7.184;2023-08-31T14:40:01;22.00;96.70
46608;DHT22;32330;51.936;7.184;2023-08-31T14:42:29;22.10;96.50
46608;DHT22;32330;51.936;7.184;2023-08-31T14:44:56;22.10;96.70
46608;DHT22;32330;51.936;7.184;2023-08-31T14:47:23;22.00;95.80
46608;DHT22;32330;51.936;7.184;2023-08-31T14:49:49;21.90;96.70
46608;DHT22;32330;51.936;7.184;2023-08-31T14:52:16;21.70;96.30
46608;DHT22;32330;51.936;7.184;2023-08-31T14:54:43;21.70;96.10
46608;DHT22;32330;51.936;7.184;2023-08-31T14:57:12;21.70;96.40
46608;DHT22;32330;51.936;7.184;2023-08-31T14:59:39;21.70;96.60
46608;DHT22;32330;51.936;7.184;2023-08-31T15:02:07;21.70;95.90
46608;DHT22;32330;51.936;7.184;2023-08-31T15:04:33;21.70;96.10
46608;DHT22;32330;51.936;7.184;2023-08-31T15:07:00;21.70;96.00
46608;DHT22;32330;51.936;7.184;2023-08-31T15:09:28;22.00;96.70
46608;DHT22;32330;51.936;7.184;2023-08-31T15:11:55;21.90;96.30
46608;DHT22;32330;51.936;7.184;2023-08-31T15:14:23;21.90;95.00
46608;DHT22;32330;51.936;7.184;2023-08-31T15:16:51;22.10;96.00
46608;DHT22;32330;51.936;7.184;2023-08-31T15:19:18;22.30;96.70
46608;DHT22;32330;51.936;7.184;2023-08-31T15:21:45;22.50;96.80
46608;DHT22;32330;51.936;7.184;2023-08-31T15:24:12;22.50;96.60
46608;DHT22;32330;51.936;7.184;2023-08-31T15:26:39;22.40;96.80
46608;DHT22;32330;51.936;7.184;2023-08-31T15:29:06;22.10;96.60
46608;DHT22;32330;51.936;7.184;2023-08-31T15:31:36;22.00;97.10
46608;DHT22;32330;51.936;7.184;2023-08-31T15:34:03;22.20;96.60
46608;DHT22;32330;51.936;7.184;2023-08-31T15:36:30;21.90;97.60
46608;DHT22;32330;51.936;7.184;2023-08-31T15:38:57;21.70;97.50
46608;DHT22;32330;51.936;7.184;2023-08-31T15:41:24;21.50;97.40
46608;DHT22;32330;51.936;7.184;2023-08-31T15:43:51;21.50;97.80
46608;DHT22;32330;51.936;7.184;2023-08-31T15:46:18;21.40;98.00
46608;DHT22;32330;51.936;7.184;2023-08-31T15:48:48;21.50;97.30
46608;DHT22;32330;51.936;7.184;2023-08-31T15:51:15;21.40;97.70
46608;DHT22;32330;51.936;7.184;2023-08-31T15:53:42;21.40;97.70
46608;DHT22;32330;51.936;7.184;2023-08-31T15:56:09;21.50;98.00
46608;DHT22;32330;51.936;7.184;2023-08-31T15:58:36;21.40;97.80
46608;DHT22;32330;51.936;7.184;2023-08-31T16:01:08;21.50;97.90
46608;DHT22;32330;51.936;7.184;2023-08-31T16:03:35;21.30;97.70
46608;DHT22;32330;51.936;7.184;2023-08-31T16:06:05;21.10;98.20
46608;DHT22;32330;51.936;7.184;2023-08-31T16:08:33;21.10;98.30
46608;DHT22;32330;51.936;7.184;2023-08-31T16:11:03;21.10;97.70
46608;DHT22;32330;51.936;7.184;2023-08-31T16:13:30;21.20;97.90
46608;DHT22;32330;51.936;7.184;2023-08-31T16:15:57;21.10;97.70
46608;DHT22;32330;51.936;7.184;2023-08-31T16:18:26;21.00;97.90
46608;DHT22;32330;51.936;7.184;2023-08-31T16:20:53;21.00;98.30
46608;DHT22;32330;51.936;7.184;2023-08-31T16:23:21;20.90;97.40
46608;DHT22;32330;51.936;7.184;2023-08-31T16:25:48;20.70;97.70
46608;DHT22;32330;51.936;7.184;2023-08-31T16:28:15;20.60;98.10
46608;DHT22;32330;51.936;7.184;2023-08-31T16:30:45;20.50;98.40
46608;DHT22;32330;51.936;7.184;2023-08-31T16:33:12;20.70;99.10
46608;DHT22;32330;51.936;7.184;2023-08-31T16:35:40;20.40;99.60
46608;DHT22;32330;51.936;7.184;2023-08-31T16:38:07;20.30;99.40
46608;DHT22;32330;51.936;7.184;2023-08-31T16:40:35;20.30;99.90
46608;DHT22;32330;51.936;7.184;2023-08-31T16:43:03;20.50;99.90
46608;DHT22;32330;51.936;7.184;2023-08-31T16:45:30;20.40;99.90
46608;DHT22;32330;51.936;7.184;2023-08-31T16:47:57;20.40;99.90
46608;DHT22;32330;51.936;7.184;2023-08-31T16:50:31;20.40;99.90
46608;DHT22;32330;51.936;7.184;2023-08-31T16:52:58;20.40;99.90
46608;DHT22;32330;51.936;7.184;2023-08-31T16:55:25;20.30;99.90
46608;DHT22;32330;51.936;7.184;2023-08-31T16:57:54;20.20;99.90
46608;DHT22;32330;51.936;7.184;2023-08-31T17:00:22;20.00;99.90
46608;DHT22;32330;51.936;7.184;2023-08-31T17:02:49;19.80;99.90
46608;DHT22;32330;51.936;7.184;2023-08-31T17:05:16;19.80;99.90
46608;DHT22;32330;51.936;7.184;2023-08-31T17:07:43;19.70;99.90
46608;DHT22;32330;51.936;7.184;2023-08-31T17:10:10;19.70;99.90
46608;DHT22;32330;51.936;7.184;2023-08-31T17:12:37;19.50;99.90
46608;DHT22;32330;51.936;7.184;2023-08-31T17:15:06;19.30;99.90
46608;DHT22;32330;51.936;7.184;2023-08-31T17:17:34;19.30;99.90
46608;DHT22;32330;51.936;7.184;2023-08-31T17:20:01;19.30;99.90
46608;DHT22;32330;51.936;7.184;2023-08-31T17:22:31;19.20;99.90
46608;DHT22;32330;51.936;7.184;2023-08-31T17:25:00;19.20;99.90
46608;DHT22;32330;51.936;7.184;2023-08-31T17:27:28;19.10;99.90
46608;DHT22;32330;51.936;7.184;2023-08-31T17:29:55;19.00;99.90
46608;DHT22;32330;51.936;7.184;2023-08-31T17:32:23;19.00;99.90
46608;DHT22;32330;51.936;7.184;2023-08-31T17:34:51;18.90;99.90
46608;DHT22;32330;51.936;7.184;2023-08-31T17:37:18;18.90;99.90
46608;DHT22;32330;51.936;7.184;2023-08-31T17:39:45;18.80;99.90
46608;DHT22;32330;51.936;7.184;2023-08-31T17:42:13;18.80;99.90
46608;DHT22;32330;51.936;7.184;2023-08-31T17:44:40;18.80;99.90
46608;DHT22;32330;51.936;7.184;2023-08-31T17:47:07;18.70;99.90
46608;DHT22;32330;51.936;7.184;2023-08-31T17:49:35;18.70;99.90
46608;DHT22;32330;51.936;7.184;2023-08-31T17:52:02;18.70;99.90
46608;DHT22;32330;51.936;7.184;2023-08-31T17:54:29;18.60;99.90
46608;DHT22;32330;51.936;7.184;2023-08-31T17:56:56;18.50;99.90
46608;DHT22;32330;51.936;7.184;2023-08-31T17:59:23;18.40;99.90
46608;DHT22;32330;51.936;7.184;2023-08-31T18:01:50;18.30;99.90
46608;DHT22;32330;51.936;7.184;2023-08-31T18:04:17;18.30;99.90
46608;DHT22;32330;51.936;7.184;2023-08-31T18:06:45;18.30;99.90
46608;DHT22;32330;51.936;7.184;2023-08-31T18:09:13;18.20;99.90
46608;DHT22;32330;51.936;7.184;2023-08-31T18:11:40;18.10;99.90
46608;DHT22;32330;51.936;7.184;2023-08-31T18:14:07;18.00;99.90
46608;DHT22;32330;51.936;7.184;2023-08-31T18:16:34;17.90;99.90
46608;DHT22;32330;51.936;7.184;2023-08-31T18:19:01;17.90;99.90
46608;DHT22;32330;51.936;7.184;2023-08-31T18:21:29;17.80;99.90
46608;DHT22;32330;51.936;7.184;2023-08-31T18:23:57;17.80;99.90
46608;DHT22;32330;51.936;7.184;2023-08-31T18:26:24;17.70;99.90
46608;DHT22;32330;51.936;7.184;2023-08-31T18:28:51;17.70;99.90
46608;DHT22;32330;51.936;7.184;2023-08-31T18:31:18;17.60;99.90
46608;DHT22;32330;51.936;7.184;2023-08-31T18:33:45;17.60;99.90
46608;DHT22;32330;51.936;7.184;2023-08-31T18:36:12;17.50;99.90
46608;DHT22;32330;51.936;7.184;2023-08-31T18:38:39;17.50;99.90
46608;DHT22;32330;51.936;7.184;2023-08-31T18:41:07;17.50;99.90
46608;DHT22;32330;51.936;7.184;2023-08-31T18:43:34;17.50;99.90
46608;DHT22;32330;51.936;7.184;2023-08-31T18:46:02;17.50;99.90
46608;DHT22;32330;51.936;7.184;2023-08-31T18:48:29;17.40;99.90
46608;DHT22;32330;51.936;7.184;2023-08-31T18:50:57;17.40;99.90
46608;DHT22;32330;51.936;7.184;2023-08-31T18:53:24;17.40;99.90
46608;DHT22;32330;51.936;7.184;2023-08-31T18:55:55;17.30;99.90
46608;DHT22;32330;51.936;7.184;2023-08-31T18:58:24;17.30;99.90
46608;DHT22;32330;51.936;7.184;2023-08-31T19:00:51;17.30;99.90
46608;DHT22;32330;51.936;7.184;2023-08-31T19:03:33;17.30;99.90
46608;DHT22;32330;51.936;7.184;2023-08-31T19:06:00;17.20;99.90
46608;DHT22;32330;51.936;7.184;2023-08-31T19:08:28;17.20;99.90
46608;DHT22;32330;51.936;7.184;2023-08-31T19:10:56;17.10;99.90
46608;DHT22;32330;51.936;7.184;2023-08-31T19:13:24;17.10;99.90
46608;DHT22;32330;51.936;7.184;2023-08-31T19:15:51;17.00;99.90
46608;DHT22;32330;51.936;7.184;2023-08-31T19:18:18;17.00;99.90
46608;DHT22;32330;51.936;7.184;2023-08-31T19:20:45;16.90;99.90
46608;DHT22;32330;51.936;7.184;2023-08-31T19:23:12;16.90;99.90
46608;DHT22;32330;51.936;7.184;2023-08-31T19:25:39;16.90;99.90
46608;DHT22;32330;51.936;7.184;2023-08-31T19:28:06;16.80;99.90